ZSPD/PVG METAR and TAF weather

Enter ICAO airport designator
Station Type Date Time Source
ZSPD METAR 2019/06/18 17:30 UTC NOAA

ZSPD 181730Z 27003MPS 2500 -RA BR BKN005 OVC033 23/23 Q1005 NOSIG


Station Type Date Time Source
ZSPD Decoded METAR 2019/06/18 17:30 UTC NOAA

Shanghai / Pudong, China (ZSPD) 31-07N 121-46E
Jun 18, 2019 - 01:30 PM EDT / 2019.06.18 1730 UTC
Wind: from the W (270 degrees) at 7 MPH (6 KT):0
Visibility: 1 mile(s):0
Sky conditions: overcast
Weather: light rain; mist
Temperature: 73 F (23 C)
Dew Point: 73 F (23 C)
Relative Humidity: 100%
Pressure (altimeter): 29.68 in. Hg (1005 hPa)
ob: ZSPD 181730Z 27003MPS 2500 -RA BR BKN005 OVC033 23/23 Q1005 NOSIG
cycle: 17

Station Type Date Time Source
ZSPD TAF 2019/06/18 18:06 UTC NOAA

TAF ZSPD 181525Z 1818/1918 35004MPS 3000 BR BKN010 OVC040 TX26/1906Z TN20/1821Z
TEMPO 1820/1824 1000 BR BKN004 OVC040
BECMG 1903/1905 09004MPS

Example: see airport list